Ringmer, United Kingdom
Current Conditions -  °F | °C
As of 7:20 PM on Thursday 18 Dec 2014 (Local Time) from EGKA Reporting Station
Broken Clouds Broken Clouds  
Wind Chill: 12°   Ceiling: 1100
Heat Index: 12°   Visibility: 6mi
Dew Point: 10°   Wind: 29mph
Humidity: 88%   Direction: 250°WSW
Pressure: 29.91"   Gusts: 41mph
Location:  50.89°N, 0.06°E
Report Text: EGKA 181920Z 25025G36KT 9999 BKN011 12/10 Q1013
Loading
Personal Weather Stations






























Interactive Weather Map New forecast layout! Learn more

10-Day Weather Forecast

Advertisements
Track Severe Weather on mobile